Time;durP1;ratioP1;P1;durP2;ratioP2;P2;SDS_P1;SDS_P2;PMS_P1;PMS_P2;Temp;Humidity;BMP_temperature;BMP_pressure;BME280_temperature;BME280_humidity;BME280_pressure;Samples;Min_cycle;Max_cycle;Signal;HPM_P1;HPM_P2
2022/11/12 09:26:39;;;;;;;;;30.50;28.50;;;;;10.83;100.00;102793.50;6264038;22;49834;-82
2022/11/12 09:29:05;;;;;;;;;32.00;30.75;;;;;10.88;100.00;102789.38;6241636;22;49994;-78
2022/11/12 09:31:30;;;;;;;;;34.25;31.75;;;;;10.97;100.00;102794.19;6236128;22;49755;-79
2022/11/12 09:33:56;;;;;;;;;39.75;29.25;;;;;11.12;100.00;102802.00;6235888;22;49978;-77
2022/11/12 09:36:21;;;;;;;;;25.75;23.75;;;;;10.19;100.00;102653.53;6236411;22;49724;-78
2022/11/12 09:38:46;;;;;;;;;37.50;31.25;;;;;9.85;100.00;102577.44;6236968;22;49702;-74
2022/11/12 09:41:24;;;;;;;;;28.50;27.25;;;;;11.21;100.00;102780.53;6235496;22;69901;-78
2022/11/12 09:43:52;;;;;;;;;35.00;30.75;;;;;10.15;100.00;102596.47;6236641;22;49594;-79
2022/11/12 09:46:55;;;;;;;;;27.00;25.50;;;;;11.38;100.00;102796.28;6237301;22;49747;-79
2022/11/12 09:49:31;;;;;;;;;30.50;30.50;;;;;10.25;100.00;102600.53;6235988;22;49632;-80
2022/11/12 09:52:09;;;;;;;;;33.50;31.00;;;;;10.54;100.00;102615.13;6236069;22;49677;-75
2022/11/12 09:54:36;;;;;;;;;39.50;35.00;;;;;10.18;100.00;102549.38;6235096;22;49776;-77
2022/11/12 09:57:01;;;;;;;;;35.00;33.00;;;;;10.16;100.00;102555.38;6209017;22;50099;-78
2022/11/12 09:59:32;;;;;;;;;34.50;31.25;;;;;11.37;100.00;102736.63;6236675;22;49725;-79
2022/11/12 10:02:12;;;;;;;;;39.00;36.25;;;;;11.83;100.00;102811.66;6236170;22;49840;-80
2022/11/12 10:05:16;;;;;;;;;26.00;24.25;;;;;11.93;100.00;102803.38;6235989;22;49638;-76
2022/11/12 10:08:11;;;;;;;;;36.00;30.75;;;;;10.71;100.00;102592.31;6236003;22;49520;-71
2022/11/12 10:11:05;;;;;;;;;35.75;33.25;;;;;12.10;100.00;102814.72;6237874;22;49794;-73
2022/11/12 10:13:49;;;;;;;;;38.00;34.75;;;;;12.18;100.00;102816.88;6235381;22;49980;-77
2022/11/12 10:16:42;;;;;;;;;40.75;36.25;;;;;11.79;100.00;102728.13;6236573;22;49847;-77
2022/11/12 10:19:31;;;;;;;;;36.25;34.00;;;;;12.32;100.00;102812.25;6237400;22;49692;-76
2022/11/12 10:22:23;;;;;;;;;44.50;37.00;;;;;12.10;100.00;102780.50;6236502;22;49768;-76
2022/11/12 10:24:49;;;;;;;;;39.25;33.25;;;;;10.91;100.00;102567.94;6236604;22;50859;-78
2022/11/12 10:27:18;;;;;;;;;36.50;35.25;;;;;11.44;100.00;102649.31;6236539;22;49808;-76
2022/11/12 10:29:57;;;;;;;;;39.00;34.50;;;;;12.41;100.00;102790.69;6236711;22;49765;-75
2022/11/12 10:32:22;;;;;;;;;42.50;37.25;;;;;11.42;100.00;102640.47;6236261;22;49722;-74
2022/11/12 10:34:48;;;;;;;;;39.00;36.00;;;;;12.35;100.00;102767.59;6236407;22;49727;-73
2022/11/12 10:37:48;;;;;;;;;33.50;31.50;;;;;11.90;100.00;102658.50;6235647;22;53214;-74
2022/11/12 10:40:36;;;;;;;;;32.75;32.00;;;;;12.69;100.00;102780.56;6224075;22;49498;-72
2022/11/12 10:43:16;;;;;;;;;39.25;35.75;;;;;12.77;100.00;102778.28;6236392;22;49677;-71
2022/11/12 10:45:43;;;;;;;;;39.50;36.75;;;;;11.79;100.00;102609.72;6235340;22;49723;-77
2022/11/12 10:48:30;;;;;;;;;41.75;35.00;;;;;12.82;100.00;102774.09;6235824;22;49816;-72
2022/11/12 10:50:56;;;;;;;;;45.75;39.75;;;;;12.54;100.00;102706.09;6236771;22;49887;-71
2022/11/12 10:53:36;;;;;;;;;33.50;29.75;;;;;12.74;100.00;102741.22;6236470;22;49752;-71
2022/11/12 10:56:04;;;;;;;;;42.25;36.50;;;;;12.98;100.00;102757.22;6235771;22;49726;-72
2022/11/12 10:58:30;;;;;;;;;41.75;36.25;;;;;11.60;100.00;102515.91;6208569;22;49738;-73
2022/11/12 11:01:06;;;;;;;;;34.50;32.75;;;;;12.86;100.00;102710.16;6235117;22;49845;-71
2022/11/12 11:03:43;;;;;;;;;37.75;35.25;;;;;12.99;99.62;102709.81;6235459;22;50034;-71
2022/11/12 11:06:14;;;;;;;;;38.25;34.00;;;;;13.32;99.17;102739.38;6235883;22;51097;-71
2022/11/12 11:08:43;;;;;;;;;37.75;34.00;;;;;13.37;99.70;102744.81;6236326;22;49786;-70
2022/11/12 11:11:22;;;;;;;;;38.25;33.25;;;;;13.39;98.45;102737.88;6235958;22;49811;-71
2022/11/12 11:13:54;;;;;;;;;42.25;35.25;;;;;13.41;98.21;102733.53;6235873;22;49632;-71
2022/11/12 11:16:25;;;;;;;;;43.50;38.25;;;;;12.24;96.83;102553.81;6235926;22;50925;-71
2022/11/12 11:18:55;;;;;;;;;37.00;33.00;;;;;13.48;97.40;102726.78;6235795;22;49721;-72
2022/11/12 11:21:49;;;;;;;;;43.75;39.00;;;;;13.55;97.53;102729.72;6235326;22;49606;-72
2022/11/12 11:24:55;;;;;;;;;34.00;33.00;;;;;13.43;96.40;102698.50;6235783;22;49611;-73
2022/11/12 11:27:38;;;;;;;;;44.50;36.75;;;;;13.62;95.83;102718.59;6235623;22;49775;-76
2022/11/12 11:30:18;;;;;;;;;36.50;35.00;;;;;13.44;95.58;102673.00;6236022;22;49669;-77
2022/11/12 11:32:55;;;;;;;;;40.25;36.25;;;;;13.67;95.70;102701.19;6208864;22;49709;-77
2022/11/12 11:35:45;;;;;;;;;51.00;40.00;;;;;13.69;94.52;102699.50;6208022;22;50056;-77
2022/11/12 11:38:37;;;;;;;;;46.50;38.75;;;;;12.03;95.05;102424.84;6207884;22;52369;-76
2022/11/12 11:41:29;;;;;;;;;44.75;39.00;;;;;13.71;95.70;102686.38;6235967;22;49781;-74
2022/11/12 11:44:04;;;;;;;;;42.00;37.00;;;;;13.78;95.58;102687.50;6236010;22;49547;-72
2022/11/12 11:46:47;;;;;;;;;46.00;38.00;;;;;13.46;95.36;102619.44;6236067;22;49637;-73
2022/11/12 11:49:21;;;;;;;;;41.75;36.75;;;;;13.91;95.05;102679.22;6235526;22;51020;-81
2022/11/12 11:52:40;;;;;;;;;41.00;36.25;;;;;14.02;94.85;102684.06;6235461;22;49654;-80
2022/11/12 11:55:30;;;;;;;;;46.50;38.75;;;;;14.11;94.43;102688.78;6081962;23;49769;-76
2022/11/12 11:58:16;;;;;;;;;36.25;32.75;;;;;14.21;94.27;102683.00;6219380;22;49769;-76
2022/11/12 12:01:10;;;;;;;;;42.75;35.00;;;;;12.67;93.66;102415.09;6235206;22;51946;-77
2022/11/12 12:03:54;;;;;;;;;42.00;36.75;;;;;14.37;92.60;102683.53;6213184;22;49850;-77
2022/11/12 12:06:22;;;;;;;;;39.75;35.25;;;;;14.42;92.81;102679.31;6235705;22;49716;-76
2022/11/12 12:08:53;;;;;;;;;43.50;36.00;;;;;14.17;92.15;102627.34;6235748;22;49670;-76
2022/11/12 12:11:40;;;;;;;;;42.25;36.00;;;;;12.92;92.29;102403.72;6235346;22;49512;-77
2022/11/12 12:14:32;;;;;;;;;89.25;82.00;;;;;14.58;94.44;102660.56;6235471;22;49772;-74
2022/11/12 12:17:39;;;;;;;;;58.75;48.25;;;;;14.63;92.33;102664.22;6197025;22;49891;-72
2022/11/12 12:20:34;;;;;;;;;37.75;33.50;;;;;14.68;91.29;102661.78;6236201;22;49524;-74
2022/11/12 12:23:14;;;;;;;;;40.75;35.50;;;;;14.62;90.70;102649.22;6235332;22;50781;-73
2022/11/12 12:25:43;;;;;;;;;35.75;34.00;;;;;14.72;90.37;102653.97;6235267;22;49544;-73
2022/11/12 12:28:11;;;;;;;;;51.25;38.75;;;;;14.78;90.40;102654.19;6234155;22;49540;-74
2022/11/12 12:30:43;;;;;;;;;118.50;102.25;;;;;14.11;90.67;102518.84;6208108;22;50046;-74
2022/11/12 12:33:31;;;;;;;;;56.25;43.25;;;;;14.87;90.68;102649.22;6234989;22;49671;-71
2022/11/12 12:36:11;;;;;;;;;84.00;72.33;;;;;13.96;89.74;102492.81;6234135;22;49662;-76
2022/11/12 12:38:36;;;;;;;;;65.25;52.00;;;;;14.40;89.45;102552.44;6207197;22;49546;-83
2022/11/12 12:41:11;;;;;;;;;53.25;43.50;;;;;14.99;90.21;102639.88;6235378;22;49524;-79
2022/11/12 12:43:51;;;;;;;;;48.00;39.50;;;;;14.96;90.19;102624.81;6235434;22;50758;-82
2022/11/12 12:46:21;;;;;;;;;64.50;52.00;;;;;14.26;89.56;102503.50;6235462;22;49864;-82
2022/11/12 12:48:50;;;;;;;;;40.75;35.75;;;;;13.83;89.75;102457.19;6207490;22;49685;-82
2022/11/12 12:51:16;;;;;;;;;53.50;43.25;;;;;13.49;89.53;102386.50;6235205;22;49633;-77
2022/11/12 12:53:42;;;;;;;;;45.75;38.50;;;;;14.29;90.03;102512.44;6234849;22;49758;-77
2022/11/12 12:56:13;;;;;;;;;70.00;55.33;;;;;15.02;89.76;102638.22;6207376;22;49922;-77
2022/11/12 12:58:44;;;;;;;;;50.75;38.50;;;;;13.71;88.79;102414.53;6207122;22;49746;-77
2022/11/12 13:01:19;;;;;;;;;43.00;35.25;;;;;14.35;88.91;102511.75;6235383;22;49727;-75
2022/11/12 13:03:52;;;;;;;;;80.67;68.67;;;;;15.01;89.41;102625.84;6237581;22;49864;-73
2022/11/12 13:06:23;;;;;;;;;43.75;37.75;;;;;14.94;89.21;102613.28;6234287;22;49807;-81
2022/11/12 13:08:54;;;;;;;;;48.50;38.50;;;;;14.68;88.94;102563.97;6243752;22;49690;-84
2022/11/12 13:14:34;;;;;;;;;187.50;168.25;;;;;15.04;89.76;102607.44;6237671;22;50382;-78
2022/11/12 13:17:02;;;;;;;;;90.00;83.00;;;;;14.11;89.80;102477.50;6240034;22;49488;-82
2022/11/12 13:19:53;;;;;;;;;73.50;56.25;;;;;14.74;90.32;102545.63;6236713;22;49742;-80
2022/11/12 13:22:19;;;;;;;;;288.50;265.00;;;;;14.66;90.27;102523.34;6216460;22;50055;-78
2022/11/12 13:25:03;;;;;;;;;131.75;121.00;;;;;14.82;90.83;102549.44;6209993;22;52646;-82
2022/11/12 13:27:43;;;;;;;;;60.75;48.25;;;;;15.10;90.98;102590.88;6236939;22;49724;-79
2022/11/12 13:30:24;;;;;;;;;41.50;35.00;;;;;13.83;90.88;102391.19;6207704;22;49519;-82
2022/11/12 13:32:49;;;;;;;;;40.75;35.75;;;;;15.13;89.70;102588.31;6236652;22;49849;-79
2022/11/12 13:35:21;;;;;;;;;42.50;37.50;;;;;15.20;90.15;102586.75;6208698;22;50465;-79
2022/11/12 13:38:07;;;;;;;;;43.25;37.00;;;;;14.00;89.74;102399.66;6236421;22;49958;-84
2022/11/12 13:40:41;;;;;;;;;43.50;36.50;;;;;15.23;89.91;102578.91;6208821;22;49804;-81
2022/11/12 13:43:06;;;;;;;;;39.50;34.25;;;;;15.23;89.39;102579.81;6208288;22;49507;-82
2022/11/12 13:45:38;;;;;;;;;40.00;35.75;;;;;14.65;89.87;102495.13;6236095;22;49642;-84
2022/11/12 13:48:07;;;;;;;;;39.50;33.75;;;;;15.29;90.23;102593.22;6236102;22;49900;-85
2022/11/12 13:50:33;;;;;;;;;59.75;47.25;;;;;15.00;89.98;102530.59;6236017;22;49636;-82
2022/11/12 13:52:59;;;;;;;;;38.50;34.75;;;;;15.29;89.04;102595.88;6236178;22;49978;-78
2022/11/12 13:55:25;;;;;;;;;43.75;36.25;;;;;13.82;89.47;102328.69;6236401;22;50645;-81
2022/11/12 13:57:53;;;;;;;;;43.00;36.75;;;;;14.57;90.31;102434.06;6235757;22;49740;-78
2022/11/12 14:00:26;;;;;;;;;54.50;45.00;;;;;14.81;90.09;102495.66;6235722;22;49445;-84
2022/11/12 14:03:05;;;;;;;;;47.50;37.75;;;;;15.22;89.86;102548.91;6234003;22;49836;-81
2022/11/12 14:05:35;;;;;;;;;48.50;40.50;;;;;14.38;90.15;102406.19;6236060;22;49885;-81
2022/11/12 14:08:26;;;;;;;;;45.50;39.25;;;;;15.31;91.18;102562.41;6236027;22;49642;-80
2022/11/12 14:10:59;;;;;;;;;45.75;37.50;;;;;14.69;90.97;102467.94;6237028;22;49655;-81
2022/11/12 14:13:47;;;;;;;;;46.75;38.50;;;;;15.26;90.98;102568.44;6236524;22;49664;-80
2022/11/12 14:16:26;;;;;;;;;50.75;38.75;;;;;15.19;91.36;102556.75;6235548;22;50427;-77
2022/11/12 14:19:15;;;;;;;;;47.50;41.50;;;;;15.25;91.27;102559.59;6236187;22;49703;-81
2022/11/12 14:21:40;;;;;;;;;46.50;38.50;;;;;15.08;91.10;102524.69;6236364;22;49830;-78
2022/11/12 14:24:11;;;;;;;;;50.75;39.75;;;;;15.23;91.45;102555.09;6236320;22;50129;-72
2022/11/12 14:26:40;;;;;;;;;46.75;39.25;;;;;15.07;91.74;102530.84;6235931;22;50298;-75
2022/11/12 14:29:06;;;;;;;;;44.00;38.00;;;;;15.22;91.52;102546.25;6235663;22;49465;-73
2022/11/12 14:31:32;;;;;;;;;45.75;39.75;;;;;15.22;91.70;102540.97;6236676;22;49801;-82
2022/11/12 14:34:26;;;;;;;;;45.50;38.50;;;;;15.25;92.31;102541.09;6235199;22;49819;-71
2022/11/12 14:36:54;;;;;;;;;45.25;39.00;;;;;15.09;92.05;102507.06;6234161;22;50082;-73
2022/11/12 14:39:21;;;;;;;;;51.00;41.00;;;;;15.29;91.97;102537.66;6233284;22;49607;-70
2022/11/12 14:41:48;;;;;;;;;43.50;38.25;;;;;15.16;92.32;102520.53;6235124;22;49623;-73
2022/11/12 14:44:27;;;;;;;;;40.50;37.00;;;;;15.10;92.27;102488.59;6234961;22;50003;-72
2022/11/12 14:46:55;;;;;;;;;41.75;36.50;;;;;15.29;92.30;102527.09;6235464;22;50436;-72
2022/11/12 14:49:39;;;;;;;;;49.00;38.00;;;;;15.27;92.71;102519.97;6235452;22;49651;-71
2022/11/12 14:52:11;;;;;;;;;43.75;37.50;;;;;15.01;93.42;102482.13;6208440;22;49736;-72
2022/11/12 14:54:46;;;;;;;;;45.50;37.50;;;;;15.26;93.25;102519.06;6235565;22;49547;-70
2022/11/12 14:57:27;;;;;;;;;33.00;30.25;;;;;15.13;93.24;102501.00;6234629;22;50503;-73
2022/11/12 14:59:53;;;;;;;;;34.25;32.50;;;;;15.15;93.48;102510.81;6234641;22;50261;-80
2022/11/12 15:02:27;;;;;;;;;36.75;32.50;;;;;15.27;93.23;102527.91;6235672;22;49811;-73
2022/11/12 15:05:00;;;;;;;;;32.25;29.50;;;;;15.23;93.63;102531.28;6234970;22;49683;-75
2022/11/12 15:07:28;;;;;;;;;36.50;32.50;;;;;15.21;93.95;102522.41;6235443;22;50369;-82
2022/11/12 15:09:53;;;;;;;;;46.50;35.25;;;;;15.10;94.00;102515.06;6207568;22;49882;-77
2022/11/12 15:12:23;;;;;;;;;34.75;33.00;;;;;15.15;93.91;102517.81;6207633;22;49741;-75
2022/11/12 15:14:50;;;;;;;;;37.50;34.00;;;;;14.98;94.43;102497.94;6235228;22;49896;-76
2022/11/12 15:17:32;;;;;;;;;43.25;35.00;;;;;15.09;94.63;102513.25;6235191;22;49500;-83
2022/11/12 15:20:11;;;;;;;;;35.50;33.25;;;;;15.05;95.26;102508.72;6207747;22;49761;-81
2022/11/12 15:22:36;;;;;;;;;39.75;35.75;;;;;15.02;95.25;102505.97;6234111;22;50052;-78
2022/11/12 15:25:10;;;;;;;;;35.00;32.25;;;;;14.79;96.16;102475.31;6234006;22;49574;-74
2022/11/12 15:27:41;;;;;;;;;36.00;33.50;;;;;14.94;96.84;102512.78;6233747;22;49847;-76
2022/11/12 15:30:24;;;;;;;;;32.25;28.00;;;;;14.88;96.99;102500.28;6233778;22;49630;-72
2022/11/12 15:33:06;;;;;;;;;35.75;34.00;;;;;14.92;97.09;102519.78;6234227;22;49835;-72
2022/11/12 15:35:45;;;;;;;;;34.50;31.00;;;;;14.89;97.46;102509.13;6234693;22;49544;-74
2022/11/12 15:38:23;;;;;;;;;42.75;36.50;;;;;14.77;97.89;102499.06;6234482;22;50849;-75
2022/11/12 15:40:53;;;;;;;;;38.50;33.00;;;;;14.75;99.10;102500.72;6208018;22;49857;-76
2022/11/12 15:43:33;;;;;;;;;35.25;33.75;;;;;14.75;98.44;102516.59;6235214;22;49774;-76
2022/11/12 15:45:59;;;;;;;;;35.00;31.25;;;;;14.29;98.93;102441.13;6235626;22;49929;-74
2022/11/12 15:48:25;;;;;;;;;32.00;32.00;;;;;14.48;100.00;102470.81;6207990;22;50686;-79
2022/11/12 15:50:50;;;;;;;;;32.00;30.25;;;;;14.46;100.00;102467.19;6206880;22;49678;-76
2022/11/12 15:53:16;;;;;;;;;34.50;32.00;;;;;14.28;100.00;102441.97;6234957;22;49646;-78
2022/11/12 15:55:43;;;;;;;;;36.00;32.25;;;;;14.56;100.00;102493.06;6208472;22;49681;-77
2022/11/12 15:58:32;;;;;;;;;36.25;30.75;;;;;14.51;100.00;102494.69;6207062;22;51389;-76
2022/11/12 16:00:57;;;;;;;;;34.50;31.25;;;;;14.48;100.00;102500.78;6234871;22;49717;-77
2022/11/12 16:03:23;;;;;;;;;31.50;27.50;;;;;13.92;100.00;102411.72;6210370;22;49714;-78
2022/11/12 16:05:48;;;;;;;;;34.75;30.00;;;;;14.38;100.00;102496.00;6183610;22;50093;-82
2022/11/12 16:08:14;;;;;;;;;36.75;32.75;;;;;13.51;100.00;102349.59;6234361;22;68176;-85
2022/11/12 16:10:41;;;;;;;;;28.75;28.00;;;;;14.32;100.00;102494.06;6208155;22;49721;-78
2022/11/12 16:13:25;;;;;;;;;36.00;32.00;;;;;13.92;100.00;102430.19;6234322;22;49512;-76
2022/11/12 16:15:50;;;;;;;;;38.25;32.75;;;;;13.56;100.00;102392.88;6231584;22;49847;-84
2022/11/12 16:18:16;;;;;;;;;33.00;30.75;;;;;14.00;100.00;102470.97;6206912;22;51719;-78
2022/11/12 16:20:41;;;;;;;;;33.50;32.25;;;;;13.61;100.00;102380.75;6234694;22;49724;-75
2022/11/12 16:23:06;;;;;;;;;41.00;33.50;;;;;12.60;100.00;102211.97;6234829;22;50316;-74
2022/11/12 16:25:34;;;;;;;;;38.50;33.75;;;;;13.45;100.00;102376.69;6234695;22;49837;-76
2022/11/12 16:28:00;;;;;;;;;27.25;24.50;;;;;13.16;100.00;102304.44;6232995;22;50420;-72
2022/11/12 16:30:28;;;;;;;;;36.50;33.75;;;;;12.78;100.00;102266.19;6231382;22;50095;-75
2022/11/12 16:32:59;;;;;;;;;35.75;32.00;;;;;13.72;100.00;102418.97;6234124;22;50098;-77
2022/11/12 16:35:25;;;;;;;;;35.25;32.75;;;;;14.10;100.00;102493.28;6236627;22;49493;-72
2022/11/12 16:38:00;;;;;;;;;35.25;32.00;;;;;14.05;100.00;102493.13;6235705;22;50345;-73
2022/11/12 16:40:28;;;;;;;;;30.25;28.25;;;;;13.95;100.00;102469.91;6229581;22;49760;-74
2022/11/12 16:42:53;;;;;;;;;36.00;32.00;;;;;14.01;100.00;102481.56;6234257;22;50041;-78
2022/11/12 16:45:22;;;;;;;;;31.00;30.00;;;;;12.97;100.00;102342.44;6234548;22;49796;-80
2022/11/12 16:47:52;;;;;;;;;32.50;29.75;;;;;14.03;100.00;102494.81;6235898;22;50928;-77
2022/11/12 16:50:21;;;;;;;;;38.00;32.75;;;;;13.62;100.00;102437.97;6236847;22;49630;-76
2022/11/12 16:52:48;;;;;;;;;30.33;25.33;;;;;13.67;100.00;102449.56;6236663;22;49730;-82
2022/11/12 16:55:13;;;;;;;;;34.50;31.25;;;;;13.10;100.00;102368.38;6238798;22;49492;-78
2022/11/12 16:57:39;;;;;;;;;31.75;30.25;;;;;13.91;100.00;102511.16;6235408;22;49714;-74
2022/11/12 17:00:06;;;;;;;;;32.25;29.00;;;;;12.08;100.00;102181.97;6236000;22;49838;-85
2022/11/12 17:02:32;;;;;;;;;33.50;30.50;;;;;13.83;100.00;102496.78;6182823;22;49822;-83
2022/11/12 17:05:02;;;;;;;;;30.50;27.75;;;;;13.12;100.00;102401.00;6237288;22;49852;-73
2022/11/12 17:07:27;;;;;;;;;32.50;32.25;;;;;13.45;100.00;102453.19;6237131;22;50299;-75
2022/11/12 17:09:53;;;;;;;;;39.75;33.75;;;;;13.70;100.00;102487.53;6237285;22;49791;-79
2022/11/12 17:12:18;;;;;;;;;54.00;44.75;;;;;12.87;100.00;102350.84;6234571;22;49742;-76
2022/11/12 17:14:43;;;;;;;;;48.25;39.00;;;;;12.04;100.00;102205.53;6236129;22;49751;-81
2022/11/12 17:17:09;;;;;;;;;36.25;34.75;;;;;12.15;100.00;102241.88;6235561;22;49818;-77
2022/11/12 17:19:34;;;;;;;;;37.00;31.75;;;;;13.05;100.00;102395.44;6234862;22;49658;-78
2022/11/12 17:21:59;;;;;;;;;39.25;35.00;;;;;12.17;100.00;102249.03;6207423;22;50017;-78
2022/11/12 17:24:25;;;;;;;;;35.00;31.25;;;;;11.95;100.00;102236.75;6208425;22;49987;-75
2022/11/12 17:26:51;;;;;;;;;44.75;37.25;;;;;13.48;100.00;102499.88;6233909;22;50296;-75
2022/11/12 17:29:16;;;;;;;;;41.75;35.00;;;;;12.66;100.00;102374.66;6233924;22;49915;-83
2022/11/12 17:31:41;;;;;;;;;45.75;39.25;;;;;13.22;100.00;102439.19;6234032;22;50024;-83
2022/11/12 17:34:07;;;;;;;;;45.50;39.00;;;;;13.01;100.00;102411.97;6238547;22;49715;-76
2022/11/12 17:36:32;;;;;;;;;43.00;36.50;;;;;13.00;100.00;102405.78;6235879;22;56513;-84
2022/11/12 17:38:59;;;;;;;;;39.00;32.75;;;;;13.25;100.00;102489.41;6235056;22;49843;-79
2022/11/12 17:41:29;;;;;;;;;42.25;35.00;;;;;13.21;100.00;102466.38;6235359;22;49941;-77
2022/11/12 17:43:59;;;;;;;;;38.75;35.25;;;;;12.00;100.00;102269.44;6236627;22;49762;-78
2022/11/12 17:46:24;;;;;;;;;36.75;33.50;;;;;12.91;100.00;102413.34;6235792;22;49940;-77
2022/11/12 17:48:50;;;;;;;;;35.50;34.00;;;;;12.24;100.00;102322.13;6235779;22;49600;-77
2022/11/12 17:51:18;;;;;;;;;34.25;33.50;;;;;12.06;100.00;102300.34;6235133;22;49625;-76
2022/11/12 17:53:44;;;;;;;;;38.00;35.25;;;;;12.88;100.00;102424.69;6235535;22;49778;-79
2022/11/12 17:56:12;;;;;;;;;45.00;36.50;;;;;12.85;100.00;102429.88;6234752;22;49710;-83
2022/11/12 17:58:38;;;;;;;;;39.75;35.00;;;;;11.74;100.00;102252.56;6235333;22;49824;-74
2022/11/12 18:01:28;;;;;;;;;43.75;36.50;;;;;12.92;100.00;102454.69;6235458;22;49495;-78
2022/11/12 18:03:54;;;;;;;;;40.25;35.50;;;;;12.16;100.00;102320.00;6216521;22;49563;-79
2022/11/12 18:06:26;;;;;;;;;41.25;35.75;;;;;12.07;100.00;102302.16;6235691;22;49654;-77
2022/11/12 18:08:57;;;;;;;;;37.00;34.00;;;;;11.88;100.00;102281.22;6208531;22;49665;-77
2022/11/12 18:11:23;;;;;;;;;42.00;36.00;;;;;12.64;100.00;102429.00;6208391;22;49797;-77
2022/11/12 18:13:49;;;;;;;;;42.50;36.25;;;;;12.93;100.00;102481.94;6235871;22;49835;-76
2022/11/12 18:16:23;;;;;;;;;35.00;33.50;;;;;11.38;100.00;102223.06;6235011;22;50340;-75
2022/11/12 18:18:49;;;;;;;;;38.25;35.25;;;;;12.13;100.00;102388.34;6236229;22;50013;-74
2022/11/12 18:21:15;;;;;;;;;35.50;32.50;;;;;12.12;100.00;102357.59;6208415;22;49702;-75
2022/11/12 18:23:43;;;;;;;;;44.00;35.75;;;;;11.29;100.00;102229.66;6240937;22;49662;-75
2022/11/12 18:26:13;;;;;;;;;46.25;35.25;;;;;12.81;100.00;102480.63;6235079;22;51034;-74
2022/11/12 18:28:39;;;;;;;;;39.50;34.00;;;;;12.35;100.00;102392.72;6236194;22;49536;-85
2022/11/12 18:31:06;;;;;;;;;41.50;36.50;;;;;12.12;100.00;102360.25;6212283;22;50148;-78
2022/11/12 18:33:31;;;;;;;;;50.25;39.00;;;;;12.26;100.00;102383.66;6237208;22;49480;-80
2022/11/12 18:36:06;;;;;;;;;38.00;32.00;;;;;12.74;100.00;102477.69;6241755;22;49945;-75
2022/11/12 18:38:33;;;;;;;;;45.00;40.00;;;;;12.66;100.00;102463.34;6236172;22;49740;-71
2022/11/12 18:41:25;;;;;;;;;41.75;38.00;;;;;12.62;100.00;102464.94;6236083;22;49811;-78
2022/11/12 18:43:55;;;;;;;;;49.75;41.25;;;;;12.41;100.00;102428.13;6229510;22;49993;-77
2022/11/12 18:46:21;;;;;;;;;39.50;35.25;;;;;11.96;100.00;102356.97;6236648;22;51242;-75
2022/11/12 18:48:47;;;;;;;;;42.25;35.50;;;;;11.72;100.00;102327.91;6236396;22;49801;-78
2022/11/12 18:51:15;;;;;;;;;42.50;37.00;;;;;10.99;100.00;102197.75;6236663;22;50071;-77
2022/11/12 18:53:41;;;;;;;;;41.75;37.75;;;;;12.18;100.00;102402.63;6236297;22;49733;-76
2022/11/12 18:56:13;;;;;;;;;52.75;40.75;;;;;12.57;100.00;102464.78;6235970;22;50448;-78
2022/11/12 18:58:39;;;;;;;;;42.25;35.75;;;;;12.56;100.00;102468.25;6208510;22;49969;-78
2022/11/12 19:01:07;;;;;;;;;50.75;42.00;;;;;12.54;100.00;102472.53;6236089;22;49686;-76
2022/11/12 19:03:33;;;;;;;;;48.25;41.00;;;;;11.51;100.00;102292.84;6209134;22;49803;-77
2022/11/12 19:06:00;;;;;;;;;45.75;38.50;;;;;11.76;100.00;102357.88;6236431;22;50525;-76
2022/11/12 19:08:26;;;;;;;;;40.00;36.00;;;;;12.49;100.00;102466.22;6208353;22;50050;-78
2022/11/12 19:11:05;;;;;;;;;51.00;41.50;;;;;10.81;100.00;102169.00;6236471;22;50180;-76
2022/11/12 19:13:31;;;;;;;;;49.00;40.75;;;;;12.46;100.00;102475.72;6237562;22;49870;-78
2022/11/12 19:16:12;;;;;;;;;49.25;39.50;;;;;12.44;100.00;102457.19;6235465;22;50262;-78
2022/11/12 19:18:39;;;;;;;;;53.75;40.50;;;;;11.00;100.00;102223.19;6235440;22;49632;-79
2022/11/12 19:21:08;;;;;;;;;47.25;39.25;;;;;11.15;100.00;102272.06;6235454;22;49905;-77
2022/11/12 19:23:34;;;;;;;;;50.00;41.25;;;;;10.80;100.00;102209.22;6236660;22;50134;-78
2022/11/12 19:26:01;;;;;;;;;51.75;42.00;;;;;11.49;100.00;102297.16;6235611;22;49774;-76
2022/11/12 19:28:26;;;;;;;;;45.50;39.25;;;;;10.64;100.00;102144.66;6235007;22;49649;-75
2022/11/12 19:30:52;;;;;;;;;53.00;41.75;;;;;10.68;100.00;102180.69;6236275;22;49900;-80
2022/11/12 19:33:17;;;;;;;;;53.25;45.00;;;;;11.54;100.00;102342.03;6239817;22;49996;-78
2022/11/12 19:35:42;;;;;;;;;48.25;42.25;;;;;11.51;100.00;102319.13;6208938;22;54024;-79
2022/11/12 19:38:08;;;;;;;;;49.75;41.50;;;;;11.30;100.00;102281.44;6236896;22;50149;-74
2022/11/12 19:40:33;;;;;;;;;52.50;43.50;;;;;10.78;100.00;102217.03;6236357;22;49899;-79
2022/11/12 19:42:59;;;;;;;;;52.75;40.00;;;;;11.73;100.00;102378.78;6208367;22;49695;-78
2022/11/12 19:45:24;;;;;;;;;46.25;38.50;;;;;12.00;100.00;102436.97;6235963;22;49745;-79
2022/11/12 19:47:50;;;;;;;;;55.00;45.00;;;;;11.04;100.00;102240.91;6236981;22;49769;-80
2022/11/12 19:50:16;;;;;;;;;56.00;45.00;;;;;11.94;100.00;102397.22;6236778;22;49716;-75
2022/11/12 19:52:41;;;;;;;;;53.00;40.00;;;;;12.18;100.00;102437.75;6236682;22;49533;-79
2022/11/12 19:55:07;;;;;;;;;50.25;42.00;;;;;11.17;100.00;102259.88;6235615;22;50145;-76
2022/11/12 19:57:32;;;;;;;;;54.75;44.75;;;;;10.59;100.00;102168.06;6208185;22;49720;-80
2022/11/12 19:59:57;;;;;;;;;55.75;45.75;;;;;12.15;100.00;102434.06;6236320;22;49738;-77
2022/11/12 20:02:23;;;;;;;;;55.75;47.25;;;;;11.47;100.00;102332.97;6235756;22;53702;-75
2022/11/12 20:04:48;;;;;;;;;51.75;43.00;;;;;10.92;100.00;102254.44;6236059;22;51501;-77
2022/11/12 20:07:13;;;;;;;;;50.00;40.00;;;;;11.88;100.00;102413.69;6235253;22;49690;-74
2022/11/12 20:09:38;;;;;;;;;52.50;43.75;;;;;10.79;100.00;102229.34;6236256;22;50021;-78
2022/11/12 20:12:04;;;;;;;;;52.25;43.25;;;;;12.10;100.00;102417.19;6236518;22;49575;-79
2022/11/12 20:14:30;;;;;;;;;54.50;44.00;;;;;11.30;100.00;102324.41;6235779;22;50706;-79
2022/11/12 20:16:55;;;;;;;;;50.75;43.25;;;;;11.53;100.00;102333.25;6235889;22;49793;-75
2022/11/12 20:19:21;;;;;;;;;53.75;44.50;;;;;11.62;100.00;102348.53;6236965;22;50046;-75
2022/11/12 20:21:46;;;;;;;;;47.00;39.50;;;;;10.43;100.00;102143.72;6210096;22;49606;-77
2022/11/12 20:24:12;;;;;;;;;50.75;43.75;;;;;11.63;100.00;102356.47;6237079;22;53828;-77
2022/11/12 20:26:37;;;;;;;;;54.50;44.25;;;;;11.98;100.00;102413.22;6236850;22;49688;-73
2022/11/12 20:29:02;;;;;;;;;52.75;44.50;;;;;10.47;100.00;102151.78;6235684;22;50033;-80
2022/11/12 20:31:28;;;;;;;;;52.50;44.75;;;;;10.67;100.00;102199.91;6237170;22;49728;-74
2022/11/12 20:33:55;;;;;;;;;49.00;41.75;;;;;11.87;100.00;102389.91;6237148;22;49623;-73
2022/11/12 20:36:21;;;;;;;;;55.50;44.00;;;;;11.75;100.00;102412.22;6236428;22;49707;-74
2022/11/12 20:38:49;;;;;;;;;56.50;45.25;;;;;10.65;100.00;102206.84;6237054;22;50127;-73
2022/11/12 20:41:25;;;;;;;;;55.50;44.75;;;;;10.68;100.00;102227.97;6236578;22;49584;-73
2022/11/12 20:43:51;;;;;;;;;54.50;44.00;;;;;11.68;100.00;102390.88;6238035;22;50623;-74
2022/11/12 20:46:17;;;;;;;;;44.50;39.25;;;;;11.05;100.00;102263.72;6209707;22;49926;-79
2022/11/12 20:48:42;;;;;;;;;54.25;44.25;;;;;11.84;100.00;102410.84;6237479;22;49963;-75
2022/11/12 20:51:19;;;;;;;;;55.25;44.75;;;;;11.82;100.00;102402.91;6237075;22;49721;-74
2022/11/12 20:53:46;;;;;;;;;51.00;43.25;;;;;10.86;100.00;102241.91;6236104;22;50364;-74
2022/11/12 20:56:17;;;;;;;;;56.00;45.75;;;;;11.79;100.00;102405.38;6236154;22;49556;-80